Main page
METAR-TAF:

METAR-TAF

Airports :

Linz Airport

Linz, Austria

latitude: 48-14N, longitude: 014-11E, elevation: 298 m

Current weather observation

The report was made 22 minutes ago, at 07:50 UTC
Wind 10 kt from the West, varying between Southwest and West/Northwest
Temperature 14°C
Humidity 72%
Pressure 1024 hPa
Visibility 10 km or more
Few clouds at a height of 2300 ft
Scattered clouds at a height of 16000 ft
Broken clouds at a height of 22000 ft

METAR: LOWL 220750Z 26010KT 220V290 9999 FEW023 SCT160 BKN220 14/09 Q1024 NOSIG

Time: 10:12 (08:12 UTC)

Forecast

The report was made 2 hours and 57 minutes ago, at 05:15 UTC
Forecast valid from 22 at 06 UTC to 23 at 06 UTC
Wind 10 kt from the West
Visibility 10 km or more
Few clouds at a height of 2000 ft
Scattered clouds at a height of 10000 ft
Broken clouds at a height of 20000 ft
Becoming
from 22 at 16 UTC to 22 at 18 UTC
Wind 4 kt from the West/Southwest

TAF: LOWL 220515Z 2206/2306 27010KT 9999 FEW020 SCT100 BKN200 TX19/2214Z TN10/2303Z BECMG 2216/2218 25004KT

Weather observations and forecasts of more than 4000 airports (METAR and TAF reports).

The available stations are represented by yellow and red dots on the map.

Hover mouse over dot to see the name of the station.

Then click to see weather observations and forecasts.

To change the map : click on the green buttons with a black cross to zoom in, on the green button with a dash to zoom out, or on the green arrows for adjacent maps.


METAR-TAF: